sensor_id;sensor_type;location;lat;lon;timestamp;temperature;humidity
871;DHT22;422;51.280;7.236;2022-07-04T09:37:37;26.20;99.90
871;DHT22;422;51.280;7.236;2022-07-04T09:40:09;26.30;99.90
871;DHT22;422;51.280;7.236;2022-07-04T09:42:42;26.70;99.90
871;DHT22;422;51.280;7.236;2022-07-04T09:45:10;25.70;99.90
871;DHT22;422;51.280;7.236;2022-07-04T09:47:39;26.50;99.90
871;DHT22;422;51.280;7.236;2022-07-04T09:50:08;27.40;99.90
871;DHT22;422;51.280;7.236;2022-07-04T09:57:54;26.70;99.90
871;DHT22;422;51.280;7.236;2022-07-04T10:00:25;27.20;99.90
871;DHT22;422;51.280;7.236;2022-07-04T10:02:57;26.70;99.90
871;DHT22;422;51.280;7.236;2022-07-04T10:05:42;27.30;99.90
871;DHT22;422;51.280;7.236;2022-07-04T10:08:09;27.30;99.90
871;DHT22;422;51.280;7.236;2022-07-04T10:10:40;27.90;99.90
871;DHT22;422;51.280;7.236;2022-07-04T10:13:12;28.40;99.90
871;DHT22;422;51.280;7.236;2022-07-04T10:15:43;27.70;99.90
871;DHT22;422;51.280;7.236;2022-07-04T10:18:14;28.60;99.90
871;DHT22;422;51.280;7.236;2022-07-04T10:20:50;28.90;99.90
871;DHT22;422;51.280;7.236;2022-07-04T10:23:18;28.70;99.90
871;DHT22;422;51.280;7.236;2022-07-04T10:25:46;28.80;99.90
871;DHT22;422;51.280;7.236;2022-07-04T10:28:18;28.60;99.90
871;DHT22;422;51.280;7.236;2022-07-04T10:30:50;27.50;99.90
871;DHT22;422;51.280;7.236;2022-07-04T10:33:25;27.00;99.90
871;DHT22;422;51.280;7.236;2022-07-04T10:35:55;27.70;99.90
871;DHT22;422;51.280;7.236;2022-07-04T10:38:27;28.20;99.90
871;DHT22;422;51.280;7.236;2022-07-04T10:40:56;27.60;99.90
871;DHT22;422;51.280;7.236;2022-07-04T10:44:01;28.00;99.90
871;DHT22;422;51.280;7.236;2022-07-04T10:46:36;28.90;99.90
871;DHT22;422;51.280;7.236;2022-07-04T10:49:08;29.20;99.90
871;DHT22;422;51.280;7.236;2022-07-04T10:51:49;29.00;99.90
871;DHT22;422;51.280;7.236;2022-07-04T10:54:19;29.20;99.90
871;DHT22;422;51.280;7.236;2022-07-04T10:56:52;29.40;99.90
871;DHT22;422;51.280;7.236;2022-07-04T10:59:23;29.80;99.90
871;DHT22;422;51.280;7.236;2022-07-04T11:05:09;30.10;99.90
871;DHT22;422;51.280;7.236;2022-07-04T11:07:58;29.30;99.90
871;DHT22;422;51.280;7.236;2022-07-04T11:10:27;29.30;99.90
871;DHT22;422;51.280;7.236;2022-07-04T11:13:08;30.00;99.90
871;DHT22;422;51.280;7.236;2022-07-04T11:16:02;28.20;99.90
871;DHT22;422;51.280;7.236;2022-07-04T11:18:30;27.10;99.90
871;DHT22;422;51.280;7.236;2022-07-04T11:21:15;26.80;99.90
871;DHT22;422;51.280;7.236;2022-07-04T11:23:54;27.00;99.90
871;DHT22;422;51.280;7.236;2022-07-04T11:26:22;28.00;99.90
871;DHT22;422;51.280;7.236;2022-07-04T11:28:50;28.50;99.90
871;DHT22;422;51.280;7.236;2022-07-04T11:31:18;29.50;99.90
871;DHT22;422;51.280;7.236;2022-07-04T11:33:47;29.70;99.90
871;DHT22;422;51.280;7.236;2022-07-04T11:36:21;28.40;99.90
871;DHT22;422;51.280;7.236;2022-07-04T11:38:50;27.20;99.90
871;DHT22;422;51.280;7.236;2022-07-04T11:41:22;27.60;99.90
871;DHT22;422;51.280;7.236;2022-07-04T11:44:12;28.10;99.90
871;DHT22;422;51.280;7.236;2022-07-04T11:47:07;28.10;99.90
871;DHT22;422;51.280;7.236;2022-07-04T11:49:39;28.60;99.90
871;DHT22;422;51.280;7.236;2022-07-04T11:52:09;28.90;99.90
871;DHT22;422;51.280;7.236;2022-07-04T11:54:36;28.30;99.90
871;DHT22;422;51.280;7.236;2022-07-04T11:57:24;29.30;99.90
871;DHT22;422;51.280;7.236;2022-07-04T11:59:56;28.80;99.90
871;DHT22;422;51.280;7.236;2022-07-04T12:02:29;27.90;99.90
871;DHT22;422;51.280;7.236;2022-07-04T12:05:03;27.70;99.90
871;DHT22;422;51.280;7.236;2022-07-04T12:07:32;28.60;99.90
871;DHT22;422;51.280;7.236;2022-07-04T12:10:09;29.40;99.90
871;DHT22;422;51.280;7.236;2022-07-04T12:12:57;29.40;99.90
871;DHT22;422;51.280;7.236;2022-07-04T12:15:35;27.90;99.90
871;DHT22;422;51.280;7.236;2022-07-04T12:18:05;28.50;99.90
871;DHT22;422;51.280;7.236;2022-07-04T12:20:32;28.80;99.90
871;DHT22;422;51.280;7.236;2022-07-04T12:23:00;28.50;99.90
871;DHT22;422;51.280;7.236;2022-07-04T12:25:31;28.60;99.90
871;DHT22;422;51.280;7.236;2022-07-04T12:28:02;28.40;99.90
871;DHT22;422;51.280;7.236;2022-07-04T12:30:32;27.90;99.90
871;DHT22;422;51.280;7.236;2022-07-04T12:33:07;27.30;99.90
871;DHT22;422;51.280;7.236;2022-07-04T12:35:36;26.60;99.90
871;DHT22;422;51.280;7.236;2022-07-04T12:38:10;26.90;99.90
871;DHT22;422;51.280;7.236;2022-07-04T12:40:50;27.40;99.90
871;DHT22;422;51.280;7.236;2022-07-04T12:43:21;27.50;99.90
871;DHT22;422;51.280;7.236;2022-07-04T12:45:50;26.90;99.90
871;DHT22;422;51.280;7.236;2022-07-04T12:48:24;26.20;99.90
871;DHT22;422;51.280;7.236;2022-07-04T12:50:52;24.90;99.90
871;DHT22;422;51.280;7.236;2022-07-04T12:53:20;24.20;99.90
871;DHT22;422;51.280;7.236;2022-07-04T12:55:48;25.20;99.90
871;DHT22;422;51.280;7.236;2022-07-04T12:58:17;27.00;99.90
871;DHT22;422;51.280;7.236;2022-07-04T13:00:49;27.50;99.90
871;DHT22;422;51.280;7.236;2022-07-04T13:03:18;28.10;99.90
871;DHT22;422;51.280;7.236;2022-07-04T13:05:54;27.50;99.90
871;DHT22;422;51.280;7.236;2022-07-04T13:08:23;27.40;99.90
871;DHT22;422;51.280;7.236;2022-07-04T13:10:54;26.70;99.90
871;DHT22;422;51.280;7.236;2022-07-04T13:13:35;26.70;99.90
871;DHT22;422;51.280;7.236;2022-07-04T13:16:05;26.50;99.90
871;DHT22;422;51.280;7.236;2022-07-04T13:18:32;26.80;99.90
871;DHT22;422;51.280;7.236;2022-07-04T13:21:01;26.50;99.90
871;DHT22;422;51.280;7.236;2022-07-04T13:23:29;26.30;99.90
871;DHT22;422;51.280;7.236;2022-07-04T13:25:59;25.90;99.90
871;DHT22;422;51.280;7.236;2022-07-04T13:28:26;26.20;99.90
871;DHT22;422;51.280;7.236;2022-07-04T13:30:54;26.50;99.90
871;DHT22;422;51.280;7.236;2022-07-04T13:33:21;27.20;99.90
871;DHT22;422;51.280;7.236;2022-07-04T13:35:53;27.20;99.90
871;DHT22;422;51.280;7.236;2022-07-04T13:38:25;27.10;99.90
871;DHT22;422;51.280;7.236;2022-07-04T13:40:53;27.00;99.90
871;DHT22;422;51.280;7.236;2022-07-04T13:43:27;27.30;99.90
871;DHT22;422;51.280;7.236;2022-07-04T13:45:55;26.40;99.90
871;DHT22;422;51.280;7.236;2022-07-04T13:48:23;26.40;99.90
871;DHT22;422;51.280;7.236;2022-07-04T13:50:51;26.90;99.90
871;DHT22;422;51.280;7.236;2022-07-04T13:53:21;28.10;99.90
871;DHT22;422;51.280;7.236;2022-07-04T13:56:07;28.10;99.90
871;DHT22;422;51.280;7.236;2022-07-04T13:58:34;27.50;99.90
871;DHT22;422;51.280;7.236;2022-07-04T14:01:02;28.00;99.90
871;DHT22;422;51.280;7.236;2022-07-04T14:03:45;27.80;99.90
871;DHT22;422;51.280;7.236;2022-07-04T14:06:19;28.00;99.90
871;DHT22;422;51.280;7.236;2022-07-04T14:08:46;27.70;99.90
871;DHT22;422;51.280;7.236;2022-07-04T14:11:21;27.80;99.90
871;DHT22;422;51.280;7.236;2022-07-04T14:13:54;27.50;99.90
871;DHT22;422;51.280;7.236;2022-07-04T14:16:23;27.60;99.90
871;DHT22;422;51.280;7.236;2022-07-04T14:18:52;27.50;99.90
871;DHT22;422;51.280;7.236;2022-07-04T14:21:20;26.80;99.90
871;DHT22;422;51.280;7.236;2022-07-04T14:23:47;26.60;99.90
871;DHT22;422;51.280;7.236;2022-07-04T14:26:20;26.20;99.90
871;DHT22;422;51.280;7.236;2022-07-04T14:28:52;25.80;99.90
871;DHT22;422;51.280;7.236;2022-07-04T14:31:20;25.20;99.90
871;DHT22;422;51.280;7.236;2022-07-04T14:33:47;25.80;99.90
871;DHT22;422;51.280;7.236;2022-07-04T14:36:16;26.30;99.90
871;DHT22;422;51.280;7.236;2022-07-04T14:38:46;25.50;99.90
871;DHT22;422;51.280;7.236;2022-07-04T14:41:16;25.90;99.90
871;DHT22;422;51.280;7.236;2022-07-04T14:43:48;25.80;99.90
871;DHT22;422;51.280;7.236;2022-07-04T14:46:24;25.50;99.90
871;DHT22;422;51.280;7.236;2022-07-04T14:48:51;24.90;99.90
871;DHT22;422;51.280;7.236;2022-07-04T14:51:18;25.00;99.90
871;DHT22;422;51.280;7.236;2022-07-04T14:53:46;24.80;99.90
871;DHT22;422;51.280;7.236;2022-07-04T14:56:13;24.90;99.90
871;DHT22;422;51.280;7.236;2022-07-04T14:58:42;25.00;99.90
871;DHT22;422;51.280;7.236;2022-07-04T15:01:11;25.10;99.90
871;DHT22;422;51.280;7.236;2022-07-04T15:03:38;24.90;99.90
871;DHT22;422;51.280;7.236;2022-07-04T15:06:09;25.00;99.90
871;DHT22;422;51.280;7.236;2022-07-04T15:08:37;25.40;99.90
871;DHT22;422;51.280;7.236;2022-07-04T15:11:06;25.50;99.90
871;DHT22;422;51.280;7.236;2022-07-04T15:13:36;25.50;99.90
871;DHT22;422;51.280;7.236;2022-07-04T15:16:04;24.80;99.90
871;DHT22;422;51.280;7.236;2022-07-04T15:18:33;24.50;99.90
871;DHT22;422;51.280;7.236;2022-07-04T15:21:00;24.30;99.90
871;DHT22;422;51.280;7.236;2022-07-04T15:23:45;24.80;99.90
871;DHT22;422;51.280;7.236;2022-07-04T15:26:32;25.80;99.90
871;DHT22;422;51.280;7.236;2022-07-04T15:29:00;26.30;99.90
871;DHT22;422;51.280;7.236;2022-07-04T15:31:32;26.60;99.90
871;DHT22;422;51.280;7.236;2022-07-04T15:34:00;26.20;99.90
871;DHT22;422;51.280;7.236;2022-07-04T15:36:30;25.70;99.90
871;DHT22;422;51.280;7.236;2022-07-04T15:38:57;25.20;99.90
871;DHT22;422;51.280;7.236;2022-07-04T15:41:28;25.20;99.90
871;DHT22;422;51.280;7.236;2022-07-04T15:43:58;25.60;99.90
871;DHT22;422;51.280;7.236;2022-07-04T15:46:27;25.90;99.90
871;DHT22;422;51.280;7.236;2022-07-04T15:48:54;25.90;99.90
871;DHT22;422;51.280;7.236;2022-07-04T15:51:37;25.50;99.90
871;DHT22;422;51.280;7.236;2022-07-04T15:54:04;25.10;99.90
871;DHT22;422;51.280;7.236;2022-07-04T15:56:31;24.70;99.90
871;DHT22;422;51.280;7.236;2022-07-04T15:59:02;25.20;99.90
871;DHT22;422;51.280;7.236;2022-07-04T16:01:30;25.50;99.90
871;DHT22;422;51.280;7.236;2022-07-04T16:03:59;25.60;99.90
871;DHT22;422;51.280;7.236;2022-07-04T16:06:29;25.90;99.90
871;DHT22;422;51.280;7.236;2022-07-04T16:08:57;26.10;99.90
871;DHT22;422;51.280;7.236;2022-07-04T16:11:24;26.30;99.90
871;DHT22;422;51.280;7.236;2022-07-04T16:13:51;26.20;99.90
871;DHT22;422;51.280;7.236;2022-07-04T16:16:19;26.70;99.90
871;DHT22;422;51.280;7.236;2022-07-04T16:18:47;27.20;99.90
871;DHT22;422;51.280;7.236;2022-07-04T16:21:18;27.70;99.90
871;DHT22;422;51.280;7.236;2022-07-04T16:23:50;27.80;99.90
871;DHT22;422;51.280;7.236;2022-07-04T16:26:17;27.40;99.90
871;DHT22;422;51.280;7.236;2022-07-04T16:28:47;26.60;99.90
871;DHT22;422;51.280;7.236;2022-07-04T16:31:17;26.60;99.90
871;DHT22;422;51.280;7.236;2022-07-04T16:33:45;26.00;99.90
871;DHT22;422;51.280;7.236;2022-07-04T16:36:15;26.10;99.90
871;DHT22;422;51.280;7.236;2022-07-04T16:38:43;26.50;99.90
871;DHT22;422;51.280;7.236;2022-07-04T16:41:26;26.60;99.90
871;DHT22;422;51.280;7.236;2022-07-04T16:43:57;26.70;99.90
871;DHT22;422;51.280;7.236;2022-07-04T16:46:25;26.70;99.90
871;DHT22;422;51.280;7.236;2022-07-04T16:48:56;26.60;99.90
871;DHT22;422;51.280;7.236;2022-07-04T16:51:29;26.70;99.90
871;DHT22;422;51.280;7.236;2022-07-04T16:53:57;26.60;99.90
871;DHT22;422;51.280;7.236;2022-07-04T16:56:25;26.60;99.90
871;DHT22;422;51.280;7.236;2022-07-04T16:59:03;26.80;99.90
871;DHT22;422;51.280;7.236;2022-07-04T17:01:33;26.60;99.90
871;DHT22;422;51.280;7.236;2022-07-04T17:04:07;26.60;99.90
871;DHT22;422;51.280;7.236;2022-07-04T17:06:40;25.90;99.90
871;DHT22;422;51.280;7.236;2022-07-04T17:09:12;26.00;99.90
871;DHT22;422;51.280;7.236;2022-07-04T17:11:46;25.80;99.90
871;DHT22;422;51.280;7.236;2022-07-04T17:14:15;25.40;99.90
871;DHT22;422;51.280;7.236;2022-07-04T17:16:42;25.40;99.90
871;DHT22;422;51.280;7.236;2022-07-04T17:19:12;25.50;99.90
871;DHT22;422;51.280;7.236;2022-07-04T17:21:41;25.60;99.90
871;DHT22;422;51.280;7.236;2022-07-04T17:24:11;25.60;99.90
871;DHT22;422;51.280;7.236;2022-07-04T17:26:38;25.20;99.90
871;DHT22;422;51.280;7.236;2022-07-04T17:29:09;25.20;99.90
871;DHT22;422;51.280;7.236;2022-07-04T17:31:42;24.90;99.90
871;DHT22;422;51.280;7.236;2022-07-04T17:34:10;24.90;99.90
871;DHT22;422;51.280;7.236;2022-07-04T17:36:38;24.80;99.90
871;DHT22;422;51.280;7.236;2022-07-04T17:39:07;24.50;99.90
871;DHT22;422;51.280;7.236;2022-07-04T17:41:34;24.60;99.90
871;DHT22;422;51.280;7.236;2022-07-04T17:44:11;24.70;99.90
871;DHT22;422;51.280;7.236;2022-07-04T17:46:40;24.50;99.90
871;DHT22;422;51.280;7.236;2022-07-04T17:49:19;24.30;99.90
871;DHT22;422;51.280;7.236;2022-07-04T17:51:51;24.30;99.90
871;DHT22;422;51.280;7.236;2022-07-04T17:54:19;24.30;99.90
871;DHT22;422;51.280;7.236;2022-07-04T17:56:50;24.10;99.90
871;DHT22;422;51.280;7.236;2022-07-04T17:59:20;23.90;99.90
871;DHT22;422;51.280;7.236;2022-07-04T18:01:50;23.90;99.90
871;DHT22;422;51.280;7.236;2022-07-04T18:04:20;23.70;99.90
871;DHT22;422;51.280;7.236;2022-07-04T18:06:48;23.60;99.90
871;DHT22;422;51.280;7.236;2022-07-04T18:09:15;23.80;99.90
871;DHT22;422;51.280;7.236;2022-07-04T18:11:44;23.60;99.90
871;DHT22;422;51.280;7.236;2022-07-04T18:14:14;23.60;99.90
871;DHT22;422;51.280;7.236;2022-07-04T18:16:43;23.50;99.90
871;DHT22;422;51.280;7.236;2022-07-04T18:19:13;23.50;99.90
871;DHT22;422;51.280;7.236;2022-07-04T18:21:41;23.50;99.90
871;DHT22;422;51.280;7.236;2022-07-04T18:24:12;23.40;99.90
871;DHT22;422;51.280;7.236;2022-07-04T18:26:43;23.20;99.90
871;DHT22;422;51.280;7.236;2022-07-04T18:29:10;23.20;99.90
871;DHT22;422;51.280;7.236;2022-07-04T18:31:37;23.10;99.90
871;DHT22;422;51.280;7.236;2022-07-04T18:34:05;22.80;99.90
871;DHT22;422;51.280;7.236;2022-07-04T18:36:38;22.80;99.90
871;DHT22;422;51.280;7.236;2022-07-04T18:39:08;22.80;99.90
871;DHT22;422;51.280;7.236;2022-07-04T18:41:37;22.80;99.90
871;DHT22;422;51.280;7.236;2022-07-04T18:44:22;22.60;99.90
871;DHT22;422;51.280;7.236;2022-07-04T18:46:52;22.60;99.90
871;DHT22;422;51.280;7.236;2022-07-04T18:49:24;22.60;99.90
871;DHT22;422;51.280;7.236;2022-07-04T18:51:53;22.60;99.90
871;DHT22;422;51.280;7.236;2022-07-04T18:54:20;22.60;99.90
871;DHT22;422;51.280;7.236;2022-07-04T18:56:49;22.50;99.90
871;DHT22;422;51.280;7.236;2022-07-04T18:59:18;22.40;99.90
871;DHT22;422;51.280;7.236;2022-07-04T19:01:49;22.40;99.90
871;DHT22;422;51.280;7.236;2022-07-04T19:04:16;22.30;99.90
871;DHT22;422;51.280;7.236;2022-07-04T19:06:43;22.10;99.90
871;DHT22;422;51.280;7.236;2022-07-04T19:09:14;22.00;99.90
871;DHT22;422;51.280;7.236;2022-07-04T19:11:43;21.90;99.90
871;DHT22;422;51.280;7.236;2022-07-04T19:14:12;21.80;99.90
871;DHT22;422;51.280;7.236;2022-07-04T19:16:44;21.80;99.90
871;DHT22;422;51.280;7.236;2022-07-04T19:19:11;21.80;99.90
871;DHT22;422;51.280;7.236;2022-07-04T19:21:38;21.80;99.90
871;DHT22;422;51.280;7.236;2022-07-04T19:24:06;21.90;99.90
871;DHT22;422;51.280;7.236;2022-07-04T19:26:37;21.80;99.90
871;DHT22;422;51.280;7.236;2022-07-04T19:29:07;21.70;99.90
871;DHT22;422;51.280;7.236;2022-07-04T19:31:36;21.60;99.90
871;DHT22;422;51.280;7.236;2022-07-04T19:34:04;21.50;99.90
871;DHT22;422;51.280;7.236;2022-07-04T19:36:35;21.40;99.90
871;DHT22;422;51.280;7.236;2022-07-04T19:39:05;21.30;99.90
871;DHT22;422;51.280;7.236;2022-07-04T19:41:55;21.20;99.90
871;DHT22;422;51.280;7.236;2022-07-04T19:44:25;21.10;99.90
871;DHT22;422;51.280;7.236;2022-07-04T19:46:55;21.00;99.90
871;DHT22;422;51.280;7.236;2022-07-04T19:49:25;20.90;99.90
871;DHT22;422;51.280;7.236;2022-07-04T19:51:52;20.80;99.90
871;DHT22;422;51.280;7.236;2022-07-04T19:54:37;20.70;99.90
871;DHT22;422;51.280;7.236;2022-07-04T19:57:11;20.60;99.90
871;DHT22;422;51.280;7.236;2022-07-04T19:59:42;20.50;99.90
871;DHT22;422;51.280;7.236;2022-07-04T20:02:10;20.50;99.90
871;DHT22;422;51.280;7.236;2022-07-04T20:04:40;20.40;99.90
871;DHT22;422;51.280;7.236;2022-07-04T20:07:08;20.40;99.90
871;DHT22;422;51.280;7.236;2022-07-04T20:09:37;20.30;99.90
871;DHT22;422;51.280;7.236;2022-07-04T20:12:05;20.20;99.90
871;DHT22;422;51.280;7.236;2022-07-04T20:14:34;20.20;99.90
871;DHT22;422;51.280;7.236;2022-07-04T20:17:01;20.20;99.90
871;DHT22;422;51.280;7.236;2022-07-04T20:19:29;20.00;99.90
871;DHT22;422;51.280;7.236;2022-07-04T20:22:02;19.90;99.90
871;DHT22;422;51.280;7.236;2022-07-04T20:24:42;19.80;99.90
871;DHT22;422;51.280;7.236;2022-07-04T20:27:12;19.60;99.90
871;DHT22;422;51.280;7.236;2022-07-04T20:29:43;19.50;99.90
871;DHT22;422;51.280;7.236;2022-07-04T20:32:14;19.60;99.90
871;DHT22;422;51.280;7.236;2022-07-04T20:34:51;19.50;99.90
871;DHT22;422;51.280;7.236;2022-07-04T20:37:24;19.40;99.90
871;DHT22;422;51.280;7.236;2022-07-04T20:39:52;19.40;99.90
871;DHT22;422;51.280;7.236;2022-07-04T20:42:24;19.30;99.90
871;DHT22;422;51.280;7.236;2022-07-04T20:44:55;19.30;99.90
871;DHT22;422;51.280;7.236;2022-07-04T20:47:23;19.20;99.90
871;DHT22;422;51.280;7.236;2022-07-04T20:49:50;19.20;99.90
871;DHT22;422;51.280;7.236;2022-07-04T20:52:18;19.10;99.90
871;DHT22;422;51.280;7.236;2022-07-04T20:54:45;19.10;99.90
871;DHT22;422;51.280;7.236;2022-07-04T20:57:16;19.10;99.90
871;DHT22;422;51.280;7.236;2022-07-04T20:59:45;19.00;99.90
871;DHT22;422;51.280;7.236;2022-07-04T21:02:16;18.90;99.90
871;DHT22;422;51.280;7.236;2022-07-04T21:04:45;19.00;99.90
871;DHT22;422;51.280;7.236;2022-07-04T21:07:12;18.90;99.90
871;DHT22;422;51.280;7.236;2022-07-04T21:09:43;18.80;99.90
871;DHT22;422;51.280;7.236;2022-07-04T21:12:10;18.70;99.90
871;DHT22;422;51.280;7.236;2022-07-04T21:14:41;18.60;99.90
871;DHT22;422;51.280;7.236;2022-07-04T21:17:08;18.60;99.90
871;DHT22;422;51.280;7.236;2022-07-04T21:19:42;18.50;99.90
871;DHT22;422;51.280;7.236;2022-07-04T21:22:09;18.50;99.90
871;DHT22;422;51.280;7.236;2022-07-04T21:24:44;18.50;99.90
871;DHT22;422;51.280;7.236;2022-07-04T21:27:17;18.40;99.90
871;DHT22;422;51.280;7.236;2022-07-04T21:29:48;18.30;99.90
871;DHT22;422;51.280;7.236;2022-07-04T21:32:15;18.30;99.90
871;DHT22;422;51.280;7.236;2022-07-04T21:34:51;18.20;99.90
871;DHT22;422;51.280;7.236;2022-07-04T21:37:21;18.20;99.90
871;DHT22;422;51.280;7.236;2022-07-04T21:39:50;18.20;99.90
871;DHT22;422;51.280;7.236;2022-07-04T21:42:19;18.10;99.90
871;DHT22;422;51.280;7.236;2022-07-04T21:44:47;18.00;99.90
871;DHT22;422;51.280;7.236;2022-07-04T21:47:17;17.90;99.90
871;DHT22;422;51.280;7.236;2022-07-04T21:49:46;17.80;99.90
871;DHT22;422;51.280;7.236;2022-07-04T21:52:15;17.70;99.90
871;DHT22;422;51.280;7.236;2022-07-04T21:54:51;17.70;99.90
871;DHT22;422;51.280;7.236;2022-07-04T21:57:18;17.60;99.90
871;DHT22;422;51.280;7.236;2022-07-04T21:59:48;17.60;99.90
871;DHT22;422;51.280;7.236;2022-07-04T22:02:15;17.50;99.90
871;DHT22;422;51.280;7.236;2022-07-04T22:04:42;17.40;99.90
871;DHT22;422;51.280;7.236;2022-07-04T22:07:14;17.30;99.90
871;DHT22;422;51.280;7.236;2022-07-04T22:09:44;17.20;99.90
871;DHT22;422;51.280;7.236;2022-07-04T22:12:12;17.20;99.90
871;DHT22;422;51.280;7.236;2022-07-04T22:14:39;17.10;99.90
871;DHT22;422;51.280;7.236;2022-07-04T22:17:07;17.10;99.90
871;DHT22;422;51.280;7.236;2022-07-04T22:19:38;17.10;99.90
871;DHT22;422;51.280;7.236;2022-07-04T22:22:11;17.00;99.90
871;DHT22;422;51.280;7.236;2022-07-04T22:24:38;16.90;99.90
871;DHT22;422;51.280;7.236;2022-07-04T22:27:07;16.90;99.90
871;DHT22;422;51.280;7.236;2022-07-04T22:29:35;16.80;99.90
871;DHT22;422;51.280;7.236;2022-07-04T22:32:05;16.80;99.90
871;DHT22;422;51.280;7.236;2022-07-04T22:34:34;16.70;99.90
871;DHT22;422;51.280;7.236;2022-07-04T22:37:03;16.70;99.90
871;DHT22;422;51.280;7.236;2022-07-04T22:39:30;16.60;99.90
871;DHT22;422;51.280;7.236;2022-07-04T22:41:58;16.50;99.90
871;DHT22;422;51.280;7.236;2022-07-04T22:44:30;16.50;99.90
871;DHT22;422;51.280;7.236;2022-07-04T22:47:06;16.40;99.90
871;DHT22;422;51.280;7.236;2022-07-04T22:49:36;16.30;99.90
871;DHT22;422;51.280;7.236;2022-07-04T22:52:05;16.10;99.90
871;DHT22;422;51.280;7.236;2022-07-04T22:54:32;16.10;99.90
871;DHT22;422;51.280;7.236;2022-07-04T22:57:22;16.00;99.90
871;DHT22;422;51.280;7.236;2022-07-04T22:59:52;16.00;99.90
871;DHT22;422;51.280;7.236;2022-07-04T23:02:20;15.90;99.90
871;DHT22;422;51.280;7.236;2022-07-04T23:04:51;15.90;99.90
871;DHT22;422;51.280;7.236;2022-07-04T23:07:22;15.90;99.90
871;DHT22;422;51.280;7.236;2022-07-04T23:09:53;15.90;99.90
871;DHT22;422;51.280;7.236;2022-07-04T23:12:21;15.90;99.90
871;DHT22;422;51.280;7.236;2022-07-04T23:14:49;15.90;99.90
871;DHT22;422;51.280;7.236;2022-07-04T23:17:22;15.90;99.90
871;DHT22;422;51.280;7.236;2022-07-04T23:19:49;15.90;99.90
871;DHT22;422;51.280;7.236;2022-07-04T23:22:17;15.80;99.90
871;DHT22;422;51.280;7.236;2022-07-04T23:24:47;15.70;99.90
871;DHT22;422;51.280;7.236;2022-07-04T23:27:14;15.70;99.90
871;DHT22;422;51.280;7.236;2022-07-04T23:29:42;15.60;99.90
871;DHT22;422;51.280;7.236;2022-07-04T23:32:09;15.50;99.90
871;DHT22;422;51.280;7.236;2022-07-04T23:34:38;15.50;99.90
871;DHT22;422;51.280;7.236;2022-07-04T23:37:05;15.40;99.90
871;DHT22;422;51.280;7.236;2022-07-04T23:39:33;15.40;99.90
871;DHT22;422;51.280;7.236;2022-07-04T23:42:00;15.30;99.90
871;DHT22;422;51.280;7.236;2022-07-04T23:44:28;15.20;99.90
871;DHT22;422;51.280;7.236;2022-07-04T23:47:00;15.20;99.90
871;DHT22;422;51.280;7.236;2022-07-04T23:49:29;15.10;99.90
871;DHT22;422;51.280;7.236;2022-07-04T23:52:02;15.10;99.90
871;DHT22;422;51.280;7.236;2022-07-04T23:54:29;15.10;99.90
871;DHT22;422;51.280;7.236;2022-07-04T23:56:56;15.10;99.90
871;DHT22;422;51.280;7.236;2022-07-04T23:59:23;15.10;99.90
